sensor_id;sensor_type;location;lat;lon;timestamp;temperature;humidity
58554;DHT22;48119;53.218;6.576;2024-02-26T00:00:00;8.30;99.90
58554;DHT22;48119;53.218;6.576;2024-02-26T00:02:26;8.30;99.90
58554;DHT22;48119;53.218;6.576;2024-02-26T00:04:52;8.30;99.90
58554;DHT22;48119;53.218;6.576;2024-02-26T00:07:18;8.30;99.90
58554;DHT22;48119;53.218;6.576;2024-02-26T00:09:43;8.20;99.90
58554;DHT22;48119;53.218;6.576;2024-02-26T00:12:09;8.20;99.90
58554;DHT22;48119;53.218;6.576;2024-02-26T00:14:35;8.20;99.90
58554;DHT22;48119;53.218;6.576;2024-02-26T00:17:01;8.10;99.90
58554;DHT22;48119;53.218;6.576;2024-02-26T00:19:28;8.20;99.90
58554;DHT22;48119;53.218;6.576;2024-02-26T00:21:54;8.20;99.90
58554;DHT22;48119;53.218;6.576;2024-02-26T00:24:21;8.20;99.90
58554;DHT22;48119;53.218;6.576;2024-02-26T00:26:47;8.10;99.90
58554;DHT22;48119;53.218;6.576;2024-02-26T00:29:18;8.20;99.90
58554;DHT22;48119;53.218;6.576;2024-02-26T00:31:45;8.20;99.90
58554;DHT22;48119;53.218;6.576;2024-02-26T00:34:11;8.20;99.90
58554;DHT22;48119;53.218;6.576;2024-02-26T00:36:36;8.20;99.90
58554;DHT22;48119;53.218;6.576;2024-02-26T00:39:02;8.30;99.90
58554;DHT22;48119;53.218;6.576;2024-02-26T00:41:29;8.40;99.90
58554;DHT22;48119;53.218;6.576;2024-02-26T00:43:55;8.40;99.90
58554;DHT22;48119;53.218;6.576;2024-02-26T00:46:21;8.40;99.90
58554;DHT22;48119;53.218;6.576;2024-02-26T00:48:46;8.40;99.90
58554;DHT22;48119;53.218;6.576;2024-02-26T00:51:12;8.40;99.90
58554;DHT22;48119;53.218;6.576;2024-02-26T00:53:38;8.40;99.90
58554;DHT22;48119;53.218;6.576;2024-02-26T00:56:04;8.40;99.90
58554;DHT22;48119;53.218;6.576;2024-02-26T00:58:30;8.40;99.90
58554;DHT22;48119;53.218;6.576;2024-02-26T01:00:55;8.30;99.90
58554;DHT22;48119;53.218;6.576;2024-02-26T01:03:21;8.30;99.90
58554;DHT22;48119;53.218;6.576;2024-02-26T01:05:47;8.30;99.90
58554;DHT22;48119;53.218;6.576;2024-02-26T01:08:13;8.30;99.90
58554;DHT22;48119;53.218;6.576;2024-02-26T01:10:39;8.30;99.90
58554;DHT22;48119;53.218;6.576;2024-02-26T01:13:05;8.20;99.90
58554;DHT22;48119;53.218;6.576;2024-02-26T01:15:31;8.20;99.90
58554;DHT22;48119;53.218;6.576;2024-02-26T01:17:57;8.20;99.90
58554;DHT22;48119;53.218;6.576;2024-02-26T01:20:23;8.20;99.90
58554;DHT22;48119;53.218;6.576;2024-02-26T01:22:49;8.20;99.90
58554;DHT22;48119;53.218;6.576;2024-02-26T01:25:15;8.20;99.90
58554;DHT22;48119;53.218;6.576;2024-02-26T01:27:41;8.10;99.90
58554;DHT22;48119;53.218;6.576;2024-02-26T01:30:11;8.10;99.90
58554;DHT22;48119;53.218;6.576;2024-02-26T01:32:37;8.10;99.90
58554;DHT22;48119;53.218;6.576;2024-02-26T01:35:03;8.10;99.90
58554;DHT22;48119;53.218;6.576;2024-02-26T01:37:30;8.10;99.90
58554;DHT22;48119;53.218;6.576;2024-02-26T01:39:56;8.10;99.90
58554;DHT22;48119;53.218;6.576;2024-02-26T01:42:22;8.10;99.90
58554;DHT22;48119;53.218;6.576;2024-02-26T01:44:48;8.10;99.90
58554;DHT22;48119;53.218;6.576;2024-02-26T01:47:14;8.00;99.90
58554;DHT22;48119;53.218;6.576;2024-02-26T01:49:40;8.10;99.90
58554;DHT22;48119;53.218;6.576;2024-02-26T01:52:08;8.00;99.90
58554;DHT22;48119;53.218;6.576;2024-02-26T01:54:37;8.00;99.90
58554;DHT22;48119;53.218;6.576;2024-02-26T01:57:05;8.00;99.90
58554;DHT22;48119;53.218;6.576;2024-02-26T01:59:32;8.00;99.90
58554;DHT22;48119;53.218;6.576;2024-02-26T02:01:59;8.10;99.90
58554;DHT22;48119;53.218;6.576;2024-02-26T02:04:27;8.00;99.90
58554;DHT22;48119;53.218;6.576;2024-02-26T02:06:53;8.00;99.90
58554;DHT22;48119;53.218;6.576;2024-02-26T02:09:20;8.00;99.90
58554;DHT22;48119;53.218;6.576;2024-02-26T02:11:47;8.00;99.90
58554;DHT22;48119;53.218;6.576;2024-02-26T02:14:14;8.10;99.90
58554;DHT22;48119;53.218;6.576;2024-02-26T02:16:40;8.00;99.90
58554;DHT22;48119;53.218;6.576;2024-02-26T02:19:05;8.00;99.90
58554;DHT22;48119;53.218;6.576;2024-02-26T02:21:31;8.00;99.90
58554;DHT22;48119;53.218;6.576;2024-02-26T02:23:57;8.00;99.90
58554;DHT22;48119;53.218;6.576;2024-02-26T02:26:23;8.00;99.90
58554;DHT22;48119;53.218;6.576;2024-02-26T02:28:48;8.00;99.90
58554;DHT22;48119;53.218;6.576;2024-02-26T02:31:15;8.00;99.90
58554;DHT22;48119;53.218;6.576;2024-02-26T02:33:41;8.00;99.90
58554;DHT22;48119;53.218;6.576;2024-02-26T02:36:08;8.00;99.90
58554;DHT22;48119;53.218;6.576;2024-02-26T02:38:37;8.00;99.90
58554;DHT22;48119;53.218;6.576;2024-02-26T02:41:03;8.00;99.90
58554;DHT22;48119;53.218;6.576;2024-02-26T02:43:28;8.00;99.90
58554;DHT22;48119;53.218;6.576;2024-02-26T02:45:54;8.00;99.90
58554;DHT22;48119;53.218;6.576;2024-02-26T02:48:20;8.00;99.90
58554;DHT22;48119;53.218;6.576;2024-02-26T02:50:46;7.90;99.90
58554;DHT22;48119;53.218;6.576;2024-02-26T02:53:12;7.90;99.90
58554;DHT22;48119;53.218;6.576;2024-02-26T02:55:37;7.90;99.90
58554;DHT22;48119;53.218;6.576;2024-02-26T02:58:03;7.90;99.90
58554;DHT22;48119;53.218;6.576;2024-02-26T03:00:29;8.00;99.90
58554;DHT22;48119;53.218;6.576;2024-02-26T03:02:55;7.90;99.90
58554;DHT22;48119;53.218;6.576;2024-02-26T03:05:21;7.90;99.90
58554;DHT22;48119;53.218;6.576;2024-02-26T03:07:47;7.90;99.90
58554;DHT22;48119;53.218;6.576;2024-02-26T03:10:13;7.90;99.90
58554;DHT22;48119;53.218;6.576;2024-02-26T03:12:39;7.90;99.90
58554;DHT22;48119;53.218;6.576;2024-02-26T03:15:05;7.90;99.90
58554;DHT22;48119;53.218;6.576;2024-02-26T03:17:31;7.90;99.90
58554;DHT22;48119;53.218;6.576;2024-02-26T03:19:57;7.90;99.90
58554;DHT22;48119;53.218;6.576;2024-02-26T03:22:23;7.90;99.90
58554;DHT22;48119;53.218;6.576;2024-02-26T03:24:48;8.00;99.90
58554;DHT22;48119;53.218;6.576;2024-02-26T03:27:14;8.00;99.90
58554;DHT22;48119;53.218;6.576;2024-02-26T03:29:40;8.00;99.90
58554;DHT22;48119;53.218;6.576;2024-02-26T03:32:06;7.90;99.90
58554;DHT22;48119;53.218;6.576;2024-02-26T03:34:33;8.00;99.90
58554;DHT22;48119;53.218;6.576;2024-02-26T03:37:01;8.00;99.90
58554;DHT22;48119;53.218;6.576;2024-02-26T03:39:27;7.90;99.90
58554;DHT22;48119;53.218;6.576;2024-02-26T03:41:53;8.00;99.90
58554;DHT22;48119;53.218;6.576;2024-02-26T03:44:19;8.00;99.90
58554;DHT22;48119;53.218;6.576;2024-02-26T03:46:46;8.00;99.90
58554;DHT22;48119;53.218;6.576;2024-02-26T03:49:12;8.00;99.90
58554;DHT22;48119;53.218;6.576;2024-02-26T03:51:39;8.00;99.90
58554;DHT22;48119;53.218;6.576;2024-02-26T03:54:04;8.00;99.90
58554;DHT22;48119;53.218;6.576;2024-02-26T03:56:32;7.90;99.90
58554;DHT22;48119;53.218;6.576;2024-02-26T03:58:57;7.90;99.90
58554;DHT22;48119;53.218;6.576;2024-02-26T04:01:25;7.90;99.90
58554;DHT22;48119;53.218;6.576;2024-02-26T04:03:51;7.90;99.90
58554;DHT22;48119;53.218;6.576;2024-02-26T04:06:18;7.90;99.90
58554;DHT22;48119;53.218;6.576;2024-02-26T04:08:46;7.90;99.90
58554;DHT22;48119;53.218;6.576;2024-02-26T04:11:12;7.90;99.90
58554;DHT22;48119;53.218;6.576;2024-02-26T04:13:38;7.90;99.90
58554;DHT22;48119;53.218;6.576;2024-02-26T04:16:06;7.90;99.90
58554;DHT22;48119;53.218;6.576;2024-02-26T04:18:32;7.90;99.90
58554;DHT22;48119;53.218;6.576;2024-02-26T04:20:58;7.90;99.90
58554;DHT22;48119;53.218;6.576;2024-02-26T04:23:24;7.90;99.90
58554;DHT22;48119;53.218;6.576;2024-02-26T04:25:50;7.90;99.90
58554;DHT22;48119;53.218;6.576;2024-02-26T04:28:19;7.90;99.90
58554;DHT22;48119;53.218;6.576;2024-02-26T04:30:47;7.90;99.90
58554;DHT22;48119;53.218;6.576;2024-02-26T04:33:13;7.80;99.90
58554;DHT22;48119;53.218;6.576;2024-02-26T04:35:39;7.80;99.90
58554;DHT22;48119;53.218;6.576;2024-02-26T04:38:05;7.80;99.90
58554;DHT22;48119;53.218;6.576;2024-02-26T04:40:31;7.80;99.90
58554;DHT22;48119;53.218;6.576;2024-02-26T04:42:57;7.80;99.90
58554;DHT22;48119;53.218;6.576;2024-02-26T04:45:22;7.70;99.90
58554;DHT22;48119;53.218;6.576;2024-02-26T04:47:48;7.80;99.90
58554;DHT22;48119;53.218;6.576;2024-02-26T04:50:14;7.80;99.90
58554;DHT22;48119;53.218;6.576;2024-02-26T04:52:41;7.80;99.90
58554;DHT22;48119;53.218;6.576;2024-02-26T04:55:07;7.80;99.90
58554;DHT22;48119;53.218;6.576;2024-02-26T04:57:33;7.90;99.90
58554;DHT22;48119;53.218;6.576;2024-02-26T04:59:58;7.90;99.90
58554;DHT22;48119;53.218;6.576;2024-02-26T05:02:24;7.90;99.90
58554;DHT22;48119;53.218;6.576;2024-02-26T05:04:50;7.90;99.90
58554;DHT22;48119;53.218;6.576;2024-02-26T05:07:16;8.00;99.90
58554;DHT22;48119;53.218;6.576;2024-02-26T05:09:46;7.90;99.90
58554;DHT22;48119;53.218;6.576;2024-02-26T05:12:12;7.90;99.90
58554;DHT22;48119;53.218;6.576;2024-02-26T05:14:37;7.90;99.90
58554;DHT22;48119;53.218;6.576;2024-02-26T05:17:03;7.90;99.90
58554;DHT22;48119;53.218;6.576;2024-02-26T05:19:29;7.90;99.90
58554;DHT22;48119;53.218;6.576;2024-02-26T05:21:55;7.80;99.90
58554;DHT22;48119;53.218;6.576;2024-02-26T05:24:21;7.80;99.90
58554;DHT22;48119;53.218;6.576;2024-02-26T05:26:48;7.80;99.90
58554;DHT22;48119;53.218;6.576;2024-02-26T05:29:13;7.90;99.90
58554;DHT22;48119;53.218;6.576;2024-02-26T05:31:41;7.90;99.90
58554;DHT22;48119;53.218;6.576;2024-02-26T05:34:07;7.90;99.90
58554;DHT22;48119;53.218;6.576;2024-02-26T05:36:35;7.90;99.90
58554;DHT22;48119;53.218;6.576;2024-02-26T05:39:01;7.90;99.90
58554;DHT22;48119;53.218;6.576;2024-02-26T05:41:27;7.90;99.90
58554;DHT22;48119;53.218;6.576;2024-02-26T05:43:53;7.80;99.90
58554;DHT22;48119;53.218;6.576;2024-02-26T05:46:20;7.90;99.90
58554;DHT22;48119;53.218;6.576;2024-02-26T05:48:51;7.90;99.90
58554;DHT22;48119;53.218;6.576;2024-02-26T05:51:17;7.90;99.90
58554;DHT22;48119;53.218;6.576;2024-02-26T05:53:43;7.90;99.90
58554;DHT22;48119;53.218;6.576;2024-02-26T05:56:09;7.90;99.90
58554;DHT22;48119;53.218;6.576;2024-02-26T05:58:35;7.90;99.90
58554;DHT22;48119;53.218;6.576;2024-02-26T06:01:01;7.90;99.90
58554;DHT22;48119;53.218;6.576;2024-02-26T06:03:27;7.90;99.90
58554;DHT22;48119;53.218;6.576;2024-02-26T06:05:53;7.90;99.90
58554;DHT22;48119;53.218;6.576;2024-02-26T06:08:19;7.90;99.90
58554;DHT22;48119;53.218;6.576;2024-02-26T06:10:44;7.90;99.90
58554;DHT22;48119;53.218;6.576;2024-02-26T06:13:11;8.00;99.90
58554;DHT22;48119;53.218;6.576;2024-02-26T06:15:36;7.90;99.90
58554;DHT22;48119;53.218;6.576;2024-02-26T06:18:02;7.90;99.90
58554;DHT22;48119;53.218;6.576;2024-02-26T06:20:28;7.90;99.90
58554;DHT22;48119;53.218;6.576;2024-02-26T06:22:54;7.90;99.90
58554;DHT22;48119;53.218;6.576;2024-02-26T06:25:20;7.90;99.90
58554;DHT22;48119;53.218;6.576;2024-02-26T06:27:45;7.80;99.90
58554;DHT22;48119;53.218;6.576;2024-02-26T06:30:12;7.80;99.90
58554;DHT22;48119;53.218;6.576;2024-02-26T06:32:37;7.80;99.90
58554;DHT22;48119;53.218;6.576;2024-02-26T06:35:04;7.90;99.90
58554;DHT22;48119;53.218;6.576;2024-02-26T06:37:33;7.90;99.90
58554;DHT22;48119;53.218;6.576;2024-02-26T06:39:59;7.80;99.90
58554;DHT22;48119;53.218;6.576;2024-02-26T06:42:25;7.80;99.90
58554;DHT22;48119;53.218;6.576;2024-02-26T06:44:51;7.80;99.90
58554;DHT22;48119;53.218;6.576;2024-02-26T06:47:17;7.80;99.90
58554;DHT22;48119;53.218;6.576;2024-02-26T06:49:43;7.80;99.90
58554;DHT22;48119;53.218;6.576;2024-02-26T06:52:09;7.80;99.90
58554;DHT22;48119;53.218;6.576;2024-02-26T06:54:35;7.90;99.90
58554;DHT22;48119;53.218;6.576;2024-02-26T06:57:01;7.90;99.90
58554;DHT22;48119;53.218;6.576;2024-02-26T06:59:27;7.90;99.90
58554;DHT22;48119;53.218;6.576;2024-02-26T07:01:53;7.90;99.90
58554;DHT22;48119;53.218;6.576;2024-02-26T07:04:20;7.90;99.90
58554;DHT22;48119;53.218;6.576;2024-02-26T07:06:46;7.90;99.90
58554;DHT22;48119;53.218;6.576;2024-02-26T07:09:13;7.90;99.90
58554;DHT22;48119;53.218;6.576;2024-02-26T07:11:39;7.90;99.90
58554;DHT22;48119;53.218;6.576;2024-02-26T07:14:12;7.90;99.90
58554;DHT22;48119;53.218;6.576;2024-02-26T07:16:38;8.00;99.90
58554;DHT22;48119;53.218;6.576;2024-02-26T07:19:04;8.00;99.90
58554;DHT22;48119;53.218;6.576;2024-02-26T07:21:30;8.00;99.90
58554;DHT22;48119;53.218;6.576;2024-02-26T07:23:56;8.00;99.90
58554;DHT22;48119;53.218;6.576;2024-02-26T07:26:21;8.00;99.90
58554;DHT22;48119;53.218;6.576;2024-02-26T07:28:49;8.00;99.90
58554;DHT22;48119;53.218;6.576;2024-02-26T07:31:17;7.90;99.90
58554;DHT22;48119;53.218;6.576;2024-02-26T07:33:42;7.90;99.90
58554;DHT22;48119;53.218;6.576;2024-02-26T07:36:08;7.90;99.90
58554;DHT22;48119;53.218;6.576;2024-02-26T07:38:34;8.00;99.90
58554;DHT22;48119;53.218;6.576;2024-02-26T07:41:02;7.90;99.90
58554;DHT22;48119;53.218;6.576;2024-02-26T07:43:28;8.00;99.90
58554;DHT22;48119;53.218;6.576;2024-02-26T07:45:54;8.00;99.90
58554;DHT22;48119;53.218;6.576;2024-02-26T07:48:20;8.00;99.90
58554;DHT22;48119;53.218;6.576;2024-02-26T07:50:46;8.00;99.90
58554;DHT22;48119;53.218;6.576;2024-02-26T07:53:13;8.00;99.90
58554;DHT22;48119;53.218;6.576;2024-02-26T07:55:39;8.00;99.90
58554;DHT22;48119;53.218;6.576;2024-02-26T07:58:04;8.00;99.90
58554;DHT22;48119;53.218;6.576;2024-02-26T08:00:30;7.90;99.90
58554;DHT22;48119;53.218;6.576;2024-02-26T08:02:56;8.00;99.90
58554;DHT22;48119;53.218;6.576;2024-02-26T08:05:22;8.00;99.90
58554;DHT22;48119;53.218;6.576;2024-02-26T08:07:48;8.00;99.90
58554;DHT22;48119;53.218;6.576;2024-02-26T08:10:14;8.00;99.90
58554;DHT22;48119;53.218;6.576;2024-02-26T08:12:40;8.00;99.90
58554;DHT22;48119;53.218;6.576;2024-02-26T08:15:07;8.00;99.90
58554;DHT22;48119;53.218;6.576;2024-02-26T08:17:33;8.00;99.90
58554;DHT22;48119;53.218;6.576;2024-02-26T08:19:59;8.00;99.90
58554;DHT22;48119;53.218;6.576;2024-02-26T08:22:28;8.00;99.90
58554;DHT22;48119;53.218;6.576;2024-02-26T08:24:54;8.00;99.90
58554;DHT22;48119;53.218;6.576;2024-02-26T08:27:19;8.00;99.90
58554;DHT22;48119;53.218;6.576;2024-02-26T08:29:45;8.00;99.90
58554;DHT22;48119;53.218;6.576;2024-02-26T08:32:11;8.00;99.90
58554;DHT22;48119;53.218;6.576;2024-02-26T08:34:37;8.00;99.90
58554;DHT22;48119;53.218;6.576;2024-02-26T08:37:03;8.00;99.90
58554;DHT22;48119;53.218;6.576;2024-02-26T08:39:29;8.00;99.90
58554;DHT22;48119;53.218;6.576;2024-02-26T08:41:54;8.00;99.90
58554;DHT22;48119;53.218;6.576;2024-02-26T08:44:20;8.10;99.90
58554;DHT22;48119;53.218;6.576;2024-02-26T08:46:46;8.00;99.90
58554;DHT22;48119;53.218;6.576;2024-02-26T08:49:12;8.10;99.90
58554;DHT22;48119;53.218;6.576;2024-02-26T08:51:43;8.10;99.90
58554;DHT22;48119;53.218;6.576;2024-02-26T08:54:12;8.10;99.90
58554;DHT22;48119;53.218;6.576;2024-02-26T08:56:38;8.10;99.90
58554;DHT22;48119;53.218;6.576;2024-02-26T08:59:04;8.10;99.90
58554;DHT22;48119;53.218;6.576;2024-02-26T09:01:31;8.10;99.90
58554;DHT22;48119;53.218;6.576;2024-02-26T09:03:58;8.10;99.90
58554;DHT22;48119;53.218;6.576;2024-02-26T09:06:24;8.10;99.90
58554;DHT22;48119;53.218;6.576;2024-02-26T09:08:50;8.20;99.90
58554;DHT22;48119;53.218;6.576;2024-02-26T09:11:18;8.20;99.90
58554;DHT22;48119;53.218;6.576;2024-02-26T09:13:43;8.20;99.90
58554;DHT22;48119;53.218;6.576;2024-02-26T09:16:09;8.20;99.90
58554;DHT22;48119;53.218;6.576;2024-02-26T09:18:37;8.20;99.90
58554;DHT22;48119;53.218;6.576;2024-02-26T09:21:06;8.20;99.90
58554;DHT22;48119;53.218;6.576;2024-02-26T09:23:32;8.20;99.90
58554;DHT22;48119;53.218;6.576;2024-02-26T09:25:58;8.20;99.90
58554;DHT22;48119;53.218;6.576;2024-02-26T09:28:24;8.20;99.90
58554;DHT22;48119;53.218;6.576;2024-02-26T09:30:50;8.20;99.90
58554;DHT22;48119;53.218;6.576;2024-02-26T09:33:16;8.20;99.90
58554;DHT22;48119;53.218;6.576;2024-02-26T09:35:42;8.20;99.90
58554;DHT22;48119;53.218;6.576;2024-02-26T09:38:08;8.20;99.90
58554;DHT22;48119;53.218;6.576;2024-02-26T09:40:34;8.20;99.90
58554;DHT22;48119;53.218;6.576;2024-02-26T09:43:00;8.20;99.90
58554;DHT22;48119;53.218;6.576;2024-02-26T09:45:30;8.20;99.90
58554;DHT22;48119;53.218;6.576;2024-02-26T09:47:58;8.20;99.90
58554;DHT22;48119;53.218;6.576;2024-02-26T09:50:24;8.20;99.90
58554;DHT22;48119;53.218;6.576;2024-02-26T09:52:51;8.20;99.90
58554;DHT22;48119;53.218;6.576;2024-02-26T09:55:18;8.30;99.90
58554;DHT22;48119;53.218;6.576;2024-02-26T09:57:46;8.20;99.90
58554;DHT22;48119;53.218;6.576;2024-02-26T10:00:17;8.20;99.90
58554;DHT22;48119;53.218;6.576;2024-02-26T10:02:47;8.20;99.90
58554;DHT22;48119;53.218;6.576;2024-02-26T10:05:17;8.30;99.90
58554;DHT22;48119;53.218;6.576;2024-02-26T10:07:48;8.20;99.90
58554;DHT22;48119;53.218;6.576;2024-02-26T10:10:14;8.30;99.90
58554;DHT22;48119;53.218;6.576;2024-02-26T10:12:41;8.30;99.90
58554;DHT22;48119;53.218;6.576;2024-02-26T10:15:07;8.20;99.90
58554;DHT22;48119;53.218;6.576;2024-02-26T10:17:33;8.30;99.90
58554;DHT22;48119;53.218;6.576;2024-02-26T10:20:13;8.30;99.90
58554;DHT22;48119;53.218;6.576;2024-02-26T10:22:49;8.30;99.90
58554;DHT22;48119;53.218;6.576;2024-02-26T10:25:16;8.30;99.90
58554;DHT22;48119;53.218;6.576;2024-02-26T10:27:42;8.30;99.90
58554;DHT22;48119;53.218;6.576;2024-02-26T10:30:21;8.20;99.90
58554;DHT22;48119;53.218;6.576;2024-02-26T10:32:50;8.30;99.90
58554;DHT22;48119;53.218;6.576;2024-02-26T10:35:17;8.30;99.90
58554;DHT22;48119;53.218;6.576;2024-02-26T10:37:43;8.30;99.90
58554;DHT22;48119;53.218;6.576;2024-02-26T10:40:14;8.40;99.90
58554;DHT22;48119;53.218;6.576;2024-02-26T10:42:41;8.30;99.90
58554;DHT22;48119;53.218;6.576;2024-02-26T10:45:08;8.30;99.90
58554;DHT22;48119;53.218;6.576;2024-02-26T10:47:37;8.40;99.90
58554;DHT22;48119;53.218;6.576;2024-02-26T10:50:05;8.40;99.90
58554;DHT22;48119;53.218;6.576;2024-02-26T10:52:33;8.30;99.90
58554;DHT22;48119;53.218;6.576;2024-02-26T10:55:01;8.30;99.90
58554;DHT22;48119;53.218;6.576;2024-02-26T10:57:32;8.30;99.90
58554;DHT22;48119;53.218;6.576;2024-02-26T11:00:00;8.30;99.90
58554;DHT22;48119;53.218;6.576;2024-02-26T11:02:27;8.30;99.90
58554;DHT22;48119;53.218;6.576;2024-02-26T11:04:53;8.40;99.90
58554;DHT22;48119;53.218;6.576;2024-02-26T11:07:20;8.40;99.90
58554;DHT22;48119;53.218;6.576;2024-02-26T11:09:48;8.40;99.90
58554;DHT22;48119;53.218;6.576;2024-02-26T11:12:18;8.40;99.90
58554;DHT22;48119;53.218;6.576;2024-02-26T11:14:46;8.40;99.90
58554;DHT22;48119;53.218;6.576;2024-02-26T11:17:13;8.40;99.90
58554;DHT22;48119;53.218;6.576;2024-02-26T11:19:43;8.40;99.90
58554;DHT22;48119;53.218;6.576;2024-02-26T11:22:12;8.40;99.90
58554;DHT22;48119;53.218;6.576;2024-02-26T11:24:46;8.40;99.90
58554;DHT22;48119;53.218;6.576;2024-02-26T11:27:12;8.30;99.90
58554;DHT22;48119;53.218;6.576;2024-02-26T11:29:43;8.40;99.90
58554;DHT22;48119;53.218;6.576;2024-02-26T11:32:10;8.50;99.90
58554;DHT22;48119;53.218;6.576;2024-02-26T11:34:39;8.30;99.90
58554;DHT22;48119;53.218;6.576;2024-02-26T11:37:13;8.40;99.90
58554;DHT22;48119;53.218;6.576;2024-02-26T11:39:42;8.40;99.90
58554;DHT22;48119;53.218;6.576;2024-02-26T11:42:14;8.40;99.90
58554;DHT22;48119;53.218;6.576;2024-02-26T11:44:40;8.50;99.90
58554;DHT22;48119;53.218;6.576;2024-02-26T11:47:17;8.50;99.90
58554;DHT22;48119;53.218;6.576;2024-02-26T11:49:43;8.50;99.90
58554;DHT22;48119;53.218;6.576;2024-02-26T11:52:10;8.50;99.90
58554;DHT22;48119;53.218;6.576;2024-02-26T11:57:37;8.60;99.90
58554;DHT22;48119;53.218;6.576;2024-02-26T12:02:40;8.50;99.90
58554;DHT22;48119;53.218;6.576;2024-02-26T12:05:15;8.60;99.90
58554;DHT22;48119;53.218;6.576;2024-02-26T12:10:28;8.50;99.90
58554;DHT22;48119;53.218;6.576;2024-02-26T12:13:00;8.50;99.90
58554;DHT22;48119;53.218;6.576;2024-02-26T12:15:32;8.60;99.90
58554;DHT22;48119;53.218;6.576;2024-02-26T12:18:02;8.60;99.90
58554;DHT22;48119;53.218;6.576;2024-02-26T12:20:28;8.60;99.90
58554;DHT22;48119;53.218;6.576;2024-02-26T12:22:54;8.60;99.90
58554;DHT22;48119;53.218;6.576;2024-02-26T12:25:27;8.70;99.90
58554;DHT22;48119;53.218;6.576;2024-02-26T12:27:54;8.70;99.90
58554;DHT22;48119;53.218;6.576;2024-02-26T12:30:20;8.70;99.90
58554;DHT22;48119;53.218;6.576;2024-02-26T12:32:50;8.70;99.90
58554;DHT22;48119;53.218;6.576;2024-02-26T12:35:16;8.70;99.90
58554;DHT22;48119;53.218;6.576;2024-02-26T12:37:46;8.70;99.90
58554;DHT22;48119;53.218;6.576;2024-02-26T12:40:12;8.70;99.90
58554;DHT22;48119;53.218;6.576;2024-02-26T12:42:38;8.70;99.90
58554;DHT22;48119;53.218;6.576;2024-02-26T12:45:08;8.70;99.90
58554;DHT22;48119;53.218;6.576;2024-02-26T12:47:41;8.60;99.90
58554;DHT22;48119;53.218;6.576;2024-02-26T12:50:08;8.60;99.90
58554;DHT22;48119;53.218;6.576;2024-02-26T12:52:36;8.60;99.90
58554;DHT22;48119;53.218;6.576;2024-02-26T12:55:03;8.50;99.90
58554;DHT22;48119;53.218;6.576;2024-02-26T12:57:31;8.50;99.90
58554;DHT22;48119;53.218;6.576;2024-02-26T12:59:59;8.50;99.90
58554;DHT22;48119;53.218;6.576;2024-02-26T13:02:25;8.50;99.90
58554;DHT22;48119;53.218;6.576;2024-02-26T13:04:53;8.50;99.90
58554;DHT22;48119;53.218;6.576;2024-02-26T13:07:21;8.50;99.90
58554;DHT22;48119;53.218;6.576;2024-02-26T13:09:47;8.50;99.90
58554;DHT22;48119;53.218;6.576;2024-02-26T13:12:13;8.50;99.90
58554;DHT22;48119;53.218;6.576;2024-02-26T13:14:40;8.50;99.90
58554;DHT22;48119;53.218;6.576;2024-02-26T13:17:06;8.50;99.90
58554;DHT22;48119;53.218;6.576;2024-02-26T13:19:32;8.50;99.90
58554;DHT22;48119;53.218;6.576;2024-02-26T13:22:07;8.50;99.90
58554;DHT22;48119;53.218;6.576;2024-02-26T13:24:38;8.50;99.90
58554;DHT22;48119;53.218;6.576;2024-02-26T13:27:04;8.50;99.90
58554;DHT22;48119;53.218;6.576;2024-02-26T13:29:31;8.50;99.90
58554;DHT22;48119;53.218;6.576;2024-02-26T13:31:58;8.50;99.90
58554;DHT22;48119;53.218;6.576;2024-02-26T13:34:27;8.50;99.90
58554;DHT22;48119;53.218;6.576;2024-02-26T13:36:54;8.50;99.90
58554;DHT22;48119;53.218;6.576;2024-02-26T13:39:27;8.50;99.90
58554;DHT22;48119;53.218;6.576;2024-02-26T13:41:54;8.50;99.90
58554;DHT22;48119;53.218;6.576;2024-02-26T13:44:20;8.60;99.90
58554;DHT22;48119;53.218;6.576;2024-02-26T13:46:47;8.50;99.90
58554;DHT22;48119;53.218;6.576;2024-02-26T13:49:15;8.60;99.90
58554;DHT22;48119;53.218;6.576;2024-02-26T13:51:41;8.50;99.90
58554;DHT22;48119;53.218;6.576;2024-02-26T13:54:08;8.60;99.90
58554;DHT22;48119;53.218;6.576;2024-02-26T13:56:35;8.60;99.90
58554;DHT22;48119;53.218;6.576;2024-02-26T13:59:02;8.50;99.90
58554;DHT22;48119;53.218;6.576;2024-02-26T14:01:28;8.60;99.90
58554;DHT22;48119;53.218;6.576;2024-02-26T14:03:53;8.60;99.90
58554;DHT22;48119;53.218;6.576;2024-02-26T14:06:23;8.60;99.90
58554;DHT22;48119;53.218;6.576;2024-02-26T14:08:49;8.60;99.90
58554;DHT22;48119;53.218;6.576;2024-02-26T14:11:15;8.60;99.90
58554;DHT22;48119;53.218;6.576;2024-02-26T14:13:41;8.60;99.90
58554;DHT22;48119;53.218;6.576;2024-02-26T14:16:07;8.60;99.90
58554;DHT22;48119;53.218;6.576;2024-02-26T14:18:32;8.70;99.90
58554;DHT22;48119;53.218;6.576;2024-02-26T14:20:58;8.70;99.90
58554;DHT22;48119;53.218;6.576;2024-02-26T14:23:25;8.60;99.90
58554;DHT22;48119;53.218;6.576;2024-02-26T14:25:51;8.60;99.90
58554;DHT22;48119;53.218;6.576;2024-02-26T14:28:17;8.70;99.90
58554;DHT22;48119;53.218;6.576;2024-02-26T14:30:42;8.70;99.90
58554;DHT22;48119;53.218;6.576;2024-02-26T14:33:09;8.70;99.90
58554;DHT22;48119;53.218;6.576;2024-02-26T14:35:35;8.80;99.90
58554;DHT22;48119;53.218;6.576;2024-02-26T14:38:01;8.70;99.90
58554;DHT22;48119;53.218;6.576;2024-02-26T14:40:27;8.70;99.90
58554;DHT22;48119;53.218;6.576;2024-02-26T14:42:53;8.90;99.90
58554;DHT22;48119;53.218;6.576;2024-02-26T14:45:18;9.00;99.90
58554;DHT22;48119;53.218;6.576;2024-02-26T14:47:44;9.00;99.90
58554;DHT22;48119;53.218;6.576;2024-02-26T14:50:12;9.00;99.90
58554;DHT22;48119;53.218;6.576;2024-02-26T14:52:38;9.00;99.90
58554;DHT22;48119;53.218;6.576;2024-02-26T14:55:04;8.90;99.90
58554;DHT22;48119;53.218;6.576;2024-02-26T14:57:31;8.80;99.90
58554;DHT22;48119;53.218;6.576;2024-02-26T14:59:56;8.80;99.90
58554;DHT22;48119;53.218;6.576;2024-02-26T15:02:23;8.80;99.90
58554;DHT22;48119;53.218;6.576;2024-02-26T15:04:49;8.70;99.90
58554;DHT22;48119;53.218;6.576;2024-02-26T15:07:15;8.70;99.90
58554;DHT22;48119;53.218;6.576;2024-02-26T15:09:41;8.70;99.90
58554;DHT22;48119;53.218;6.576;2024-02-26T15:12:07;8.70;99.90
58554;DHT22;48119;53.218;6.576;2024-02-26T15:14:34;8.70;99.90
58554;DHT22;48119;53.218;6.576;2024-02-26T15:17:00;8.60;99.90
58554;DHT22;48119;53.218;6.576;2024-02-26T15:19:26;8.60;99.90
58554;DHT22;48119;53.218;6.576;2024-02-26T15:21:52;8.60;99.90
58554;DHT22;48119;53.218;6.576;2024-02-26T15:24:18;8.60;99.90
58554;DHT22;48119;53.218;6.576;2024-02-26T15:26:44;8.60;99.90
58554;DHT22;48119;53.218;6.576;2024-02-26T15:29:11;8.60;99.90
58554;DHT22;48119;53.218;6.576;2024-02-26T15:31:37;8.60;99.90
58554;DHT22;48119;53.218;6.576;2024-02-26T15:34:04;8.60;99.90
58554;DHT22;48119;53.218;6.576;2024-02-26T15:36:34;8.60;99.90
58554;DHT22;48119;53.218;6.576;2024-02-26T15:39:00;8.60;99.90
58554;DHT22;48119;53.218;6.576;2024-02-26T15:41:25;8.60;99.90
58554;DHT22;48119;53.218;6.576;2024-02-26T15:43:51;8.60;99.90
58554;DHT22;48119;53.218;6.576;2024-02-26T15:46:17;8.50;99.90
58554;DHT22;48119;53.218;6.576;2024-02-26T15:48:43;8.60;99.90